Time;durP1;ratioP1;P1;durP2;ratioP2;P2;SDS_P1;SDS_P2;PMS_P1;PMS_P2;Temp;Humidity;BMP_temperature;BMP_pressure;BME280_temperature;BME280_humidity;BME280_pressure;Samples;Min_cycle;Max_cycle;Signal;HPM_P1;HPM_P2
2023/06/04 00:02:26;;;;;;;7.40;2.08;;;;;;;17.11;40.20;99401.84;4346081;33;33325;-91
2023/06/04 00:04:54;;;;;;;4.05;1.67;;;;;;;16.95;40.69;99402.88;4346128;33;34224;-90
2023/06/04 00:07:22;;;;;;;5.70;2.55;;;;;;;16.92;40.42;99398.53;4345527;33;34215;-93
2023/06/04 00:09:49;;;;;;;4.95;2.05;;;;;;;16.97;40.33;99399.37;4332312;33;33502;-90
2023/06/04 00:12:17;;;;;;;6.00;2.15;;;;;;;16.89;40.83;99389.81;4346525;33;34851;-92
2023/06/04 00:14:45;;;;;;;5.60;2.30;;;;;;;16.72;41.24;99403.03;4346474;33;34073;-84
2023/06/04 00:17:12;;;;;;;4.62;2.20;;;;;;;16.80;40.88;99409.13;4345258;33;33942;-92
2023/06/04 00:19:40;;;;;;;6.53;1.95;;;;;;;16.72;41.06;99406.53;4345839;33;34801;-84
2023/06/04 00:22:08;;;;;;;4.25;1.90;;;;;;;16.78;41.10;99409.13;4320866;33;33002;-84
2023/06/04 00:24:37;;;;;;;7.03;1.80;;;;;;;16.78;40.84;99400.38;4346141;33;33881;-90
2023/06/04 00:27:07;;;;;;;5.90;1.90;;;;;;;16.76;40.53;99387.31;4334070;33;35064;-86
2023/06/04 00:29:35;;;;;;;5.68;1.92;;;;;;;16.68;41.11;99399.59;4345601;33;33473;-84
2023/06/04 00:32:03;;;;;;;5.15;2.25;;;;;;;16.92;40.63;99389.81;4332730;33;33058;-83
2023/06/04 00:34:31;;;;;;;5.15;1.92;;;;;;;16.90;40.81;99388.97;4357314;32;33553;-83
2023/06/04 00:37:01;;;;;;;4.45;1.85;;;;;;;16.76;41.01;99378.59;4331439;33;33694;-84
2023/06/04 00:39:29;;;;;;;5.35;2.22;;;;;;;16.98;41.00;99385.38;4320088;33;33593;-83
2023/06/04 00:41:56;;;;;;;8.20;1.80;;;;;;;16.95;41.07;99379.31;4320682;33;32288;-83
2023/06/04 00:44:25;;;;;;;7.68;2.30;;;;;;;16.74;41.41;99390.81;4332742;33;33569;-92
2023/06/04 00:46:56;;;;;;;5.30;1.80;;;;;;;16.71;41.36;99394.31;4344404;33;34721;-87
2023/06/04 00:49:25;;;;;;;4.90;2.00;;;;;;;16.66;40.60;99396.09;4346032;33;34550;-91
2023/06/04 00:51:52;;;;;;;5.80;2.00;;;;;;;16.58;41.03;99397.03;4338681;33;33646;-91
2023/06/04 00:54:20;;;;;;;4.37;1.85;;;;;;;16.60;41.58;99408.38;4344709;33;34121;-83
2023/06/04 00:56:48;;;;;;;4.43;2.00;;;;;;;16.57;41.81;99400.56;4345673;33;34558;-82
2023/06/04 00:59:16;;;;;;;7.30;2.30;;;;;;;16.67;41.80;99404.84;4349593;33;33961;-89
2023/06/04 01:01:51;;;;;;;7.35;1.95;;;;;;;16.58;42.48;99403.16;4350385;33;33205;-82
2023/06/04 01:04:39;;;;;;;7.65;2.20;;;;;;;16.74;42.86;99403.91;4348699;32;34173;-82
2023/06/04 01:07:07;;;;;;;6.95;1.90;;;;;;;16.94;42.50;99391.53;4348784;33;33348;-82
2023/06/04 01:09:36;;;;;;;5.85;2.08;;;;;;;16.79;43.03;99383.81;4336891;33;34093;-82
2023/06/04 01:12:05;;;;;;;6.28;2.33;;;;;;;16.67;43.54;99386.53;4336168;33;34085;-82
2023/06/04 01:14:36;;;;;;;4.78;2.12;;;;;;;16.68;43.52;99388.25;4350529;33;33887;-82
2023/06/04 01:17:28;;;;;;;5.60;2.28;;;;;;;16.74;43.17;99383.87;4350479;33;34919;-89
2023/06/04 01:20:08;;;;;;;7.30;2.20;;;;;;;16.71;42.96;99383.00;4337673;33;33959;-88
2023/06/04 01:22:42;;;;;;;7.75;2.20;;;;;;;16.33;41.96;99384.16;4337505;32;33215;-84
2023/06/04 01:25:33;;;;;;;6.25;1.98;;;;;;;16.53;43.82;99387.47;4343839;33;34076;-82
2023/06/04 01:28:03;;;;;;;4.47;1.73;;;;;;;16.71;43.27;99383.00;4349269;33;34273;-89
2023/06/04 01:30:42;;;;;;;5.40;2.20;;;;;;;16.68;41.87;99390.87;4350796;33;33629;-83
2023/06/04 01:33:15;;;;;;;8.77;2.00;;;;;;;16.72;41.91;99401.28;4350230;33;33852;-84
2023/06/04 01:35:43;;;;;;;6.90;1.80;;;;;;;16.74;41.33;99403.91;4350337;33;34112;-91
2023/06/04 01:38:11;;;;;;;5.97;1.70;;;;;;;16.90;40.97;99397.69;4336515;33;33805;-91
2023/06/04 01:40:39;;;;;;;6.75;1.92;;;;;;;16.76;41.38;99404.78;4337203;33;34449;-89
2023/06/04 01:43:06;;;;;;;5.55;1.73;;;;;;;16.73;41.70;99399.53;4337633;33;33197;-91
2023/06/04 01:45:34;;;;;;;6.78;2.00;;;;;;;16.80;41.54;99405.63;4324815;33;33301;-84
2023/06/04 01:48:03;;;;;;;5.57;2.55;;;;;;;16.76;41.30;99405.66;4351798;32;35117;-83
2023/06/04 01:50:31;;;;;;;5.25;1.80;;;;;;;16.78;42.08;99389.91;4365543;32;34165;-84
2023/06/04 01:52:59;;;;;;;3.20;1.48;;;;;;;16.61;41.96;99395.28;4347294;32;33241;-83
2023/06/04 01:55:28;;;;;;;4.85;1.90;;;;;;;16.46;42.09;99390.16;4351071;32;34113;-83
2023/06/04 01:57:56;;;;;;;6.75;1.70;;;;;;;16.56;41.91;99393.59;4364935;32;35112;-89
2023/06/04 02:00:24;;;;;;;6.12;1.80;;;;;;;16.61;41.81;99391.78;4350859;32;34341;-84
2023/06/04 02:02:52;;;;;;;3.58;1.73;;;;;;;16.40;42.20;99390.19;4342573;32;33384;-84
2023/06/04 02:05:21;;;;;;;4.62;1.55;;;;;;;16.30;42.53;99395.50;4349839;32;34024;-83
2023/06/04 02:07:48;;;;;;;4.85;1.58;;;;;;;16.32;42.28;99400.72;4349613;33;34167;-83
2023/06/04 02:10:17;;;;;;;6.75;1.58;;;;;;;16.26;43.09;99395.53;4347030;33;35384;-92
2023/06/04 02:12:56;;;;;;;5.05;1.70;;;;;;;16.20;42.75;99400.81;4346513;33;33109;-83
2023/06/04 02:15:26;;;;;;;3.90;1.60;;;;;;;16.36;42.66;99405.03;4333902;33;34641;-84
2023/06/04 02:18:02;;;;;;;4.07;1.50;;;;;;;16.30;42.96;99405.09;4333950;33;35019;-90
2023/06/04 02:20:30;;;;;;;3.05;1.33;;;;;;;16.34;43.60;99408.56;4333875;33;34862;-83
2023/06/04 02:22:59;;;;;;;3.33;1.42;;;;;;;16.45;42.96;99394.53;4332813;33;33019;-83
2023/06/04 02:25:26;;;;;;;6.03;1.60;;;;;;;16.32;42.58;99405.09;4347204;33;33707;-83
2023/06/04 02:27:54;;;;;;;5.28;1.77;;;;;;;16.52;42.65;99400.59;4347238;33;33847;-83
2023/06/04 02:30:21;;;;;;;5.40;1.62;;;;;;;16.63;42.60;99398.75;4346846;33;33980;-81
2023/06/04 02:32:50;;;;;;;4.15;1.30;;;;;;;16.49;42.59;99404.09;4346569;32;33557;-83
2023/06/04 02:35:22;;;;;;;5.72;1.50;;;;;;;16.53;42.24;99399.69;4347088;33;33967;-81
2023/06/04 02:37:50;;;;;;;4.28;1.65;;;;;;;16.58;41.52;99397.03;4347185;33;35046;-90
2023/06/04 02:40:18;;;;;;;4.18;1.90;;;;;;;16.59;41.49;99404.00;4342787;33;34140;-86
2023/06/04 02:42:46;;;;;;;4.37;1.58;;;;;;;16.63;41.30;99397.88;4335643;33;33758;-83
2023/06/04 02:45:14;;;;;;;5.00;1.37;;;;;;;16.68;41.44;99391.72;4333724;33;33962;-88
2023/06/04 02:47:41;;;;;;;6.93;1.73;;;;;;;16.68;41.64;99398.72;4331861;33;35050;-87
2023/06/04 02:50:09;;;;;;;4.55;1.42;;;;;;;16.41;41.79;99399.81;4339322;33;34806;-85
2023/06/04 02:52:37;;;;;;;4.28;1.90;;;;;;;16.49;41.83;99405.84;4332504;33;31969;-91
2023/06/04 02:55:06;;;;;;;5.60;1.85;;;;;;;16.45;42.10;99404.13;4330777;33;34709;-84
2023/06/04 02:57:35;;;;;;;5.80;1.90;;;;;;;16.38;42.28;99403.31;4331107;33;35168;-82
2023/06/04 03:00:12;;;;;;;3.72;1.58;;;;;;;16.41;41.88;99395.44;4332738;33;34304;-83
2023/06/04 03:02:41;;;;;;;4.37;1.40;;;;;;;16.19;42.53;99399.06;4345978;33;31831;-87
2023/06/04 03:05:13;;;;;;;3.85;2.05;;;;;;;16.21;42.75;99402.53;4348583;32;33709;-83
2023/06/04 03:07:44;;;;;;;4.87;1.67;;;;;;;16.01;43.02;99398.28;4354667;32;35103;-88
2023/06/04 03:10:13;;;;;;;3.92;1.50;;;;;;;16.16;43.13;99401.69;4349123;32;33918;-82
2023/06/04 03:12:40;;;;;;;5.85;1.73;;;;;;;16.02;43.00;99404.38;4333364;33;33106;-89
2023/06/04 03:15:08;;;;;;;4.43;1.60;;;;;;;16.02;43.20;99414.84;4359091;32;35026;-83
2023/06/04 03:17:36;;;;;;;4.40;1.52;;;;;;;15.97;43.36;99412.25;4362080;32;34808;-90
2023/06/04 03:20:06;;;;;;;7.30;1.80;;;;;;;16.03;43.15;99414.00;4353479;32;33942;-82
2023/06/04 03:22:35;;;;;;;6.60;1.70;;;;;;;16.03;43.08;99409.62;4347678;32;34296;-87
2023/06/04 03:25:04;;;;;;;5.25;1.42;;;;;;;16.10;43.32;99410.47;4348503;32;33551;-83
2023/06/04 03:27:33;;;;;;;3.80;1.45;;;;;;;16.09;43.03;99410.47;4348155;32;33754;-81
2023/06/04 03:30:02;;;;;;;4.90;1.70;;;;;;;16.26;43.00;99408.63;4326630;32;34027;-83
2023/06/04 03:32:33;;;;;;;5.70;1.70;;;;;;;16.22;42.77;99410.38;4349096;32;33106;-87
2023/06/04 03:35:02;;;;;;;4.97;1.73;;;;;;;16.23;43.14;99411.25;4346487;33;34882;-87
2023/06/04 03:37:32;;;;;;;4.37;1.67;;;;;;;16.02;42.88;99415.75;4346839;33;35248;-82
2023/06/04 03:40:02;;;;;;;3.60;1.60;;;;;;;16.07;43.70;99427.91;4345970;33;33879;-82
2023/06/04 03:42:30;;;;;;;5.43;1.45;;;;;;;15.48;42.13;99411.56;4333530;33;34039;-82
2023/06/04 03:44:59;;;;;;;4.50;1.92;;;;;;;15.75;45.08;99421.94;4346847;33;34402;-86
2023/06/04 03:47:28;;;;;;;5.50;1.37;;;;;;;16.22;45.04;99422.59;4346746;33;34866;-83
2023/06/04 03:49:56;;;;;;;6.18;1.92;;;;;;;16.63;43.83;99424.94;4345314;33;33601;-82
2023/06/04 03:52:23;;;;;;;5.30;2.08;;;;;;;16.16;40.44;99427.84;4332560;33;33337;-82
2023/06/04 03:54:51;;;;;;;6.20;1.75;;;;;;;16.49;43.25;99425.03;4346127;33;33704;-82
2023/06/04 03:57:20;;;;;;;3.97;1.48;;;;;;;16.64;42.58;99423.19;4345984;33;34316;-82
2023/06/04 03:59:47;;;;;;;5.68;1.55;;;;;;;16.66;42.35;99431.88;4336200;33;34081;-84
2023/06/04 04:02:16;;;;;;;5.60;1.60;;;;;;;16.19;40.89;99422.63;4345855;33;34063;-84
2023/06/04 04:04:45;;;;;;;4.40;1.40;;;;;;;16.68;42.65;99438.00;4345707;32;34779;-82
2023/06/04 04:07:12;;;;;;;6.28;1.80;;;;;;;16.54;40.83;99435.47;4345812;33;34291;-83
2023/06/04 04:09:40;;;;;;;4.55;1.30;;;;;;;17.05;42.44;99437.69;4343814;32;34015;-82
2023/06/04 04:12:08;;;;;;;6.78;1.70;;;;;;;17.26;40.95;99430.50;4351946;32;33454;-88
2023/06/04 04:14:36;;;;;;;4.22;1.40;;;;;;;17.12;40.73;99428.87;4347855;32;33930;-89
2023/06/04 04:17:03;;;;;;;3.33;1.40;;;;;;;17.73;39.94;99431.75;4345451;32;34133;-82
2023/06/04 04:19:32;;;;;;;5.40;1.50;;;;;;;17.92;39.40;99436.81;4328562;32;34707;-84
2023/06/04 04:22:00;;;;;;;5.90;1.73;;;;;;;17.87;36.80;99423.72;4354216;32;33070;-86
2023/06/04 04:24:29;;;;;;;3.62;1.60;;;;;;;18.03;37.74;99420.91;4332251;32;34821;-83
2023/06/04 04:26:58;;;;;;;4.12;1.52;;;;;;;17.69;37.71;99423.91;4346228;32;32470;-82
2023/06/04 04:29:27;;;;;;;4.07;1.48;;;;;;;17.49;36.45;99435.50;4352038;32;34108;-89
2023/06/04 04:31:56;;;;;;;5.25;1.60;;;;;;;17.48;37.74;99432.91;4349295;32;33647;-82
2023/06/04 04:34:26;;;;;;;2.80;1.40;;;;;;;17.80;36.35;99432.53;4346184;32;33999;-86
2023/06/04 04:36:54;;;;;;;4.75;1.67;;;;;;;17.67;36.35;99439.66;4336348;33;33672;-81
2023/06/04 04:39:25;;;;;;;4.93;1.30;;;;;;;18.01;36.94;99438.44;4351171;32;34437;-81
2023/06/04 04:41:55;;;;;;;4.28;1.50;;;;;;;18.48;35.09;99446.47;4332773;33;33346;-88
2023/06/04 04:44:22;;;;;;;9.48;1.35;;;;;;;18.21;35.82;99439.00;4331565;33;33082;-91
2023/06/04 04:46:53;;;;;;;3.22;1.40;;;;;;;18.03;36.94;99448.00;4345945;33;35147;-91
2023/06/04 04:49:20;;;;;;;3.87;1.37;;;;;;;17.85;37.73;99441.25;4331446;33;32372;-85
2023/06/04 04:51:48;;;;;;;5.10;1.62;;;;;;;17.97;36.76;99441.09;4345712;33;33065;-83
2023/06/04 04:54:17;;;;;;;5.20;1.45;;;;;;;17.75;37.93;99440.47;4345031;32;33986;-81
2023/06/04 04:56:44;;;;;;;5.40;1.60;;;;;;;17.75;37.42;99443.09;4345268;32;34195;-83
2023/06/04 04:59:12;;;;;;;5.20;1.62;;;;;;;17.93;37.94;99439.38;4344844;33;34007;-86
2023/06/04 05:01:40;;;;;;;3.97;1.60;;;;;;;17.66;38.30;99444.94;4345047;33;33150;-92
2023/06/04 05:04:08;;;;;;;5.30;1.85;;;;;;;17.73;38.21;99449.22;4330427;33;32061;-83
2023/06/04 05:06:37;;;;;;;4.90;1.70;;;;;;;17.96;38.38;99456.84;4345587;32;34059;-89
2023/06/04 05:09:05;;;;;;;5.22;1.37;;;;;;;17.71;38.04;99446.63;4332351;33;33887;-90
2023/06/04 05:11:33;;;;;;;5.62;2.08;;;;;;;17.40;38.76;99446.09;4345056;33;33348;-91
2023/06/04 05:14:01;;;;;;;6.53;1.98;;;;;;;17.26;39.78;99455.84;4331923;33;33200;-84
2023/06/04 05:16:29;;;;;;;2.78;1.17;;;;;;;17.65;38.91;99457.19;4345314;33;34731;-82
2023/06/04 05:18:57;;;;;;;6.75;1.85;;;;;;;17.26;39.67;99454.09;4332667;33;34167;-90
2023/06/04 05:21:26;;;;;;;6.22;1.75;;;;;;;17.56;38.70;99462.53;4332541;33;33095;-91
2023/06/04 05:23:55;;;;;;;7.25;2.00;;;;;;;17.30;39.53;99473.25;4345977;32;34486;-91
2023/06/04 05:26:27;;;;;;;7.45;2.10;;;;;;;17.51;40.02;99470.44;4346400;32;34009;-83
2023/06/04 05:28:55;;;;;;;7.55;1.70;;;;;;;17.59;38.94;99472.12;4314830;33;34128;-90
2023/06/04 05:31:27;;;;;;;4.57;1.83;;;;;;;17.76;38.53;99464.94;4351224;32;34233;-82
2023/06/04 05:33:55;;;;;;;7.57;1.65;;;;;;;17.78;39.02;99464.94;4342655;32;33568;-83
2023/06/04 05:36:23;;;;;;;5.40;1.65;;;;;;;17.77;39.73;99466.69;4351028;32;34839;-83
2023/06/04 05:38:56;;;;;;;5.90;1.60;;;;;;;17.66;40.38;99482.50;4344882;32;33902;-93
2023/06/04 05:41:25;;;;;;;4.93;1.65;;;;;;;17.75;39.26;99476.31;4344900;33;33241;-83
2023/06/04 05:43:53;;;;;;;7.15;1.80;;;;;;;17.87;39.82;99470.94;4345690;32;35115;-91
2023/06/04 05:46:21;;;;;;;4.15;1.77;;;;;;;17.69;41.25;99478.97;4346380;32;33847;-83
2023/06/04 05:48:50;;;;;;;5.22;1.75;;;;;;;18.10;39.92;99472.41;4346726;33;33618;-82
2023/06/04 05:51:19;;;;;;;6.43;1.55;;;;;;;18.09;39.97;99474.16;4334296;33;33235;-84
2023/06/04 05:53:47;;;;;;;3.75;1.73;;;;;;;17.82;40.53;99470.13;4334665;32;34034;-89
2023/06/04 05:56:16;;;;;;;5.35;1.70;;;;;;;17.89;40.83;99468.31;4348456;32;34501;-90
2023/06/04 05:58:51;;;;;;;6.40;1.77;;;;;;;18.16;40.35;99472.34;4333989;33;33718;-91
2023/06/04 06:01:19;;;;;;;5.30;1.60;;;;;;;17.85;40.94;99464.00;4334045;33;34261;-92
2023/06/04 06:03:47;;;;;;;7.30;1.62;;;;;;;18.23;40.36;99464.34;4339425;32;34245;-83
2023/06/04 06:06:15;;;;;;;5.40;1.70;;;;;;;17.71;41.24;99466.72;4346323;32;33943;-82
2023/06/04 06:08:43;;;;;;;4.20;1.50;;;;;;;17.51;41.47;99465.19;4352616;32;34498;-82
2023/06/04 06:11:11;;;;;;;7.22;1.70;;;;;;;17.51;40.75;99475.69;4347153;33;33299;-92
2023/06/04 06:13:39;;;;;;;4.62;1.62;;;;;;;17.80;40.85;99481.50;4347143;33;33685;-81
2023/06/04 06:16:07;;;;;;;4.35;1.70;;;;;;;18.15;39.93;99483.72;4343127;33;33862;-81
2023/06/04 06:18:35;;;;;;;4.75;1.77;;;;;;;18.37;38.69;99490.44;4346917;33;33860;-83
2023/06/04 06:21:02;;;;;;;4.97;1.52;;;;;;;18.80;38.04;99495.06;4346248;32;33507;-82
2023/06/04 06:23:30;;;;;;;5.47;2.25;;;;;;;19.11;34.99;99489.31;4346614;32;33976;-83
2023/06/04 06:26:01;;;;;;;4.53;1.37;;;;;;;19.26;37.14;99489.06;4339705;33;34145;-83
2023/06/04 06:28:29;;;;;;;4.55;1.65;;;;;;;19.39;37.07;99495.81;4346517;33;33449;-82
2023/06/04 06:30:56;;;;;;;6.28;1.60;;;;;;;19.42;36.18;99490.53;4346023;33;33100;-81
2023/06/04 06:33:24;;;;;;;6.43;1.50;;;;;;;18.99;36.69;99497.41;4350621;32;33902;-90
2023/06/04 06:35:52;;;;;;;6.55;1.60;;;;;;;19.01;35.87;99493.84;4337219;33;33881;-82
2023/06/04 06:38:19;;;;;;;5.03;1.48;;;;;;;19.21;36.17;99498.81;4344363;33;34611;-89
2023/06/04 06:40:47;;;;;;;10.90;1.58;;;;;;;19.42;37.26;99501.03;4327181;33;33812;-83
2023/06/04 06:43:15;;;;;;;5.18;1.70;;;;;;;19.12;34.42;99504.19;4329329;32;33457;-85
2023/06/04 06:45:42;;;;;;;4.65;1.50;;;;;;;19.26;35.21;99503.97;4353240;32;34622;-85
2023/06/04 06:48:10;;;;;;;4.53;1.77;;;;;;;19.26;36.52;99506.59;4345527;33;33975;-89
2023/06/04 06:50:38;;;;;;;5.47;1.60;;;;;;;19.62;36.63;99507.72;4333029;33;33518;-83
2023/06/04 06:53:07;;;;;;;5.37;2.42;;;;;;;19.27;35.64;99517.06;4332912;33;33805;-85
2023/06/04 06:55:35;;;;;;;6.12;1.77;;;;;;;19.53;35.45;99513.13;4344503;32;34154;-91
2023/06/04 06:58:03;;;;;;;6.95;1.75;;;;;;;19.45;35.81;99516.75;4345344;33;33629;-86
2023/06/04 07:00:30;;;;;;;5.93;1.83;;;;;;;19.39;35.34;99511.59;4332664;33;33854;-89
2023/06/04 07:02:58;;;;;;;9.57;1.62;;;;;;;19.24;34.04;99522.38;4345933;33;33549;-86
2023/06/04 07:05:26;;;;;;;4.43;1.70;;;;;;;19.25;34.71;99518.88;4349973;32;33808;-89
2023/06/04 07:07:54;;;;;;;5.07;1.80;;;;;;;19.36;35.05;99522.19;4345956;33;33312;-89
2023/06/04 07:10:21;;;;;;;5.72;1.95;;;;;;;19.68;36.75;99518.16;4345551;32;32576;-83
2023/06/04 07:12:49;;;;;;;4.65;1.70;;;;;;;19.90;35.35;99518.59;4332381;33;33148;-83
2023/06/04 07:15:16;;;;;;;6.12;1.77;;;;;;;20.28;32.94;99515.19;4345485;32;33897;-83
2023/06/04 07:17:44;;;;;;;4.45;1.75;;;;;;;20.36;34.33;99515.91;4345399;32;33900;-85
2023/06/04 07:20:12;;;;;;;5.15;1.52;;;;;;;20.02;33.13;99510.47;4332778;32;32698;-83
2023/06/04 07:22:39;;;;;;;5.97;1.65;;;;;;;19.65;34.53;99518.19;4337225;33;34813;-83
2023/06/04 07:25:08;;;;;;;6.37;1.95;;;;;;;20.17;35.57;99523.31;4332388;33;34279;-88
2023/06/04 07:27:35;;;;;;;6.93;1.87;;;;;;;20.37;35.47;99522.88;4345627;32;33426;-84
2023/06/04 07:30:03;;;;;;;7.40;1.73;;;;;;;20.38;36.41;99527.28;4351132;32;33427;-87
2023/06/04 07:32:31;;;;;;;4.93;1.60;;;;;;;20.22;35.22;99523.22;4349097;32;34032;-89
2023/06/04 07:34:59;;;;;;;6.47;1.48;;;;;;;20.59;34.09;99525.09;4348939;32;34068;-83
2023/06/04 07:37:26;;;;;;;6.47;1.40;;;;;;;20.30;33.03;99518.66;4347838;32;33924;-83
2023/06/04 07:39:54;;;;;;;5.20;1.40;;;;;;;20.76;33.70;99520.31;4348307;32;32440;-85
2023/06/04 07:42:22;;;;;;;6.10;1.87;;;;;;;20.96;33.84;99526.88;4346014;33;33867;-82
2023/06/04 07:44:49;;;;;;;3.58;1.20;;;;;;;21.02;34.81;99524.09;4348346;32;34952;-83
2023/06/04 07:47:17;;;;;;;7.05;1.95;;;;;;;20.79;34.56;99528.13;4351484;32;34192;-88
2023/06/04 07:49:44;;;;;;;4.68;1.90;;;;;;;21.09;34.62;99526.53;4350050;32;33590;-84
2023/06/04 07:52:30;;;;;;;5.10;1.50;;;;;;;21.38;32.82;99527.63;4345924;32;33819;-91
2023/06/04 07:54:59;;;;;;;5.78;1.75;;;;;;;21.24;34.01;99525.31;4345246;33;33614;-86
2023/06/04 07:57:26;;;;;;;7.32;1.75;;;;;;;21.36;33.68;99529.44;4346729;32;33884;-93
2023/06/04 07:59:54;;;;;;;8.52;1.92;;;;;;;21.55;32.21;99529.81;4354900;32;34537;-93
2023/06/04 08:02:22;;;;;;;3.78;1.50;;;;;;;21.50;32.77;99537.00;4330669;33;34639;-84
2023/06/04 08:04:50;;;;;;;5.30;1.85;;;;;;;21.77;32.31;99536.25;4347378;33;33738;-93
2023/06/04 08:07:18;;;;;;;4.75;1.70;;;;;;;22.05;33.13;99535.53;4345666;32;33927;-89
2023/06/04 08:09:45;;;;;;;6.22;2.10;;;;;;;22.59;32.40;99530.41;4348759;32;33503;-83
2023/06/04 08:12:13;;;;;;;6.80;1.55;;;;;;;22.21;32.60;99536.84;4354415;32;34936;-84
2023/06/04 08:14:41;;;;;;;6.78;1.77;;;;;;;22.37;34.74;99534.63;4345699;32;34128;-84
2023/06/04 08:17:08;;;;;;;5.12;1.50;;;;;;;22.52;32.14;99533.28;4353948;32;34677;-89
2023/06/04 08:19:41;;;;;;;5.75;1.75;;;;;;;23.12;32.54;99536.75;4364814;32;33619;-88
2023/06/04 08:22:12;;;;;;;6.78;1.90;;;;;;;23.18;31.36;99526.81;4345693;33;33917;-84
2023/06/04 08:24:49;;;;;;;5.32;1.45;;;;;;;23.08;30.45;99541.28;4341247;33;34263;-93
2023/06/04 08:27:37;;;;;;;6.05;1.65;;;;;;;22.92;30.27;99535.63;4339792;32;32581;-88
2023/06/04 08:30:22;;;;;;;7.47;1.60;;;;;;;22.49;31.26;99536.03;4335220;33;33025;-90
2023/06/04 08:33:10;;;;;;;6.25;1.42;;;;;;;22.98;32.66;99538.03;4329834;32;32382;-83
2023/06/04 08:35:46;;;;;;;4.80;1.70;;;;;;;23.10;32.36;99539.44;4356535;32;35173;-83
2023/06/04 08:38:14;;;;;;;4.87;1.12;;;;;;;23.12;31.00;99542.03;4346344;33;34233;-82
2023/06/04 08:40:43;;;;;;;5.50;1.75;;;;;;;23.10;32.65;99543.84;4345870;32;33866;-84
2023/06/04 08:43:11;;;;;;;7.40;1.45;;;;;;;23.04;31.86;99539.66;4333967;33;33321;-94
2023/06/04 08:45:39;;;;;;;4.25;1.50;;;;;;;23.00;35.94;99544.16;4339884;32;35131;-92
2023/06/04 08:48:12;;;;;;;5.93;1.50;;;;;;;22.83;32.10;99536.72;4350880;32;34079;-87
2023/06/04 08:50:44;;;;;;;4.45;1.52;;;;;;;22.54;34.17;99540.28;4345105;32;34284;-83
2023/06/04 08:53:13;;;;;;;4.65;1.58;;;;;;;22.58;32.44;99535.75;4332899;33;34003;-83
2023/06/04 08:55:41;;;;;;;5.65;1.75;;;;;;;22.37;34.17;99536.41;4332675;33;33861;-84
2023/06/04 08:58:10;;;;;;;5.28;1.55;;;;;;;22.77;36.92;99541.34;4330346;33;33505;-82
2023/06/04 09:00:38;;;;;;;5.87;1.58;;;;;;;22.62;36.24;99537.41;4348496;32;33395;-82
2023/06/04 09:03:06;;;;;;;4.37;1.67;;;;;;;22.51;34.97;99543.00;4336360;33;33992;-81
2023/06/04 09:05:34;;;;;;;4.12;1.48;;;;;;;22.75;35.07;99544.03;4344891;32;33831;-84
2023/06/04 09:08:03;;;;;;;8.80;1.55;;;;;;;22.60;34.05;99541.84;4331809;33;34620;-82
2023/06/04 09:10:32;;;;;;;4.15;1.55;;;;;;;22.74;36.84;99542.31;4338132;33;34220;-83
2023/06/04 09:13:02;;;;;;;8.23;1.73;;;;;;;22.60;39.69;99544.50;4349377;32;34919;-81
2023/06/04 09:15:30;;;;;;;7.82;1.90;;;;;;;22.65;38.76;99539.06;4334604;33;34216;-93
2023/06/04 09:17:57;;;;;;;5.85;1.40;;;;;;;22.66;36.24;99544.31;4354858;32;32741;-92
2023/06/04 09:20:26;;;;;;;4.28;1.80;;;;;;;22.76;34.41;99545.75;4348539;33;31776;-88
2023/06/04 09:22:54;;;;;;;6.95;2.10;;;;;;;22.54;35.71;99542.03;4336281;33;34248;-95
2023/06/04 09:25:25;;;;;;;5.37;1.67;;;;;;;22.55;36.00;99541.13;4351505;32;34114;-91
2023/06/04 09:28:05;;;;;;;6.15;1.80;;;;;;;22.42;38.19;99545.03;4346469;32;34757;-82
2023/06/04 09:30:35;;;;;;;9.05;1.90;;;;;;;22.70;35.31;99548.59;4318127;33;32621;-94
2023/06/04 09:33:08;;;;;;;5.78;1.75;;;;;;;22.56;36.53;99541.06;4352921;32;33724;-88
2023/06/04 09:35:37;;;;;;;8.38;2.22;;;;;;;22.53;36.29;99543.81;4324279;33;34050;-83
2023/06/04 09:38:05;;;;;;;6.18;1.83;;;;;;;22.19;38.16;99540.44;4350268;32;34080;-89
2023/06/04 09:40:37;;;;;;;8.32;2.00;;;;;;;22.23;38.54;99542.94;4335662;33;36068;-84
2023/06/04 09:43:05;;;;;;;6.68;1.65;;;;;;;22.42;36.98;99550.31;4340943;33;32826;-91
2023/06/04 09:45:37;;;;;;;5.25;1.50;;;;;;;22.26;41.37;99555.19;4348234;33;34188;-88
2023/06/04 09:48:05;;;;;;;3.90;1.40;;;;;;;22.51;42.81;99555.34;4337159;33;33967;-85
2023/06/04 09:50:38;;;;;;;8.55;1.60;;;;;;;22.40;43.49;99560.94;4347704;32;34162;-86
2023/06/04 09:53:18;;;;;;;5.97;1.95;;;;;;;22.35;39.48;99552.31;4350029;32;34247;-84
2023/06/04 09:55:58;;;;;;;11.52;2.60;;;;;;;22.38;38.13;99556.59;4348714;32;34112;-85
2023/06/04 09:58:27;;;;;;;8.48;2.05;;;;;;;22.41;40.73;99562.66;4349620;32;33976;-95
2023/06/04 10:00:58;;;;;;;5.35;2.00;;;;;;;22.45;41.51;99558.16;4353460;32;34891;-82
2023/06/04 10:03:32;;;;;;;5.37;2.25;;;;;;;22.54;42.44;99571.09;4335313;33;33324;-95
2023/06/04 10:06:03;;;;;;;7.72;2.03;;;;;;;22.42;42.63;99569.69;4352773;32;34826;-84
2023/06/04 10:08:32;;;;;;;6.85;2.22;;;;;;;22.53;39.92;99566.72;4338043;33;34794;-82
2023/06/04 10:11:01;;;;;;;10.82;1.80;;;;;;;22.43;40.06;99563.50;4322125;33;33067;-82
2023/06/04 10:13:31;;;;;;;6.87;2.08;;;;;;;22.56;43.60;99570.12;4339301;33;34087;-92
2023/06/04 10:15:59;;;;;;;6.22;2.00;;;;;;;22.76;44.39;99571.31;4328938;32;33951;-93
2023/06/04 10:18:28;;;;;;;5.68;2.10;;;;;;;22.48;44.86;99563.38;4325350;32;33983;-93
2023/06/04 10:20:56;;;;;;;8.20;2.10;;;;;;;22.47;45.61;99574.84;4355572;32;33798;-94
2023/06/04 10:23:24;;;;;;;7.78;2.50;;;;;;;22.57;43.57;99560.44;4347003;33;33762;-91
2023/06/04 10:25:53;;;;;;;8.23;2.30;;;;;;;22.70;44.80;99553.88;4330148;33;34462;-86
2023/06/04 10:28:22;;;;;;;8.18;2.37;;;;;;;22.40;45.03;99560.94;4328154;33;34283;-91
2023/06/04 10:30:50;;;;;;;7.12;2.20;;;;;;;22.40;45.82;99560.94;4332851;33;34317;-88
2023/06/04 10:33:20;;;;;;;6.18;2.60;;;;;;;22.08;46.36;99567.09;4320100;32;33033;-84
2023/06/04 10:35:47;;;;;;;10.85;2.58;;;;;;;22.23;46.56;99563.19;4338157;33;33941;-83
2023/06/04 10:38:16;;;;;;;8.05;2.40;;;;;;;22.32;47.09;99563.81;4332681;32;34693;-91
2023/06/04 10:40:44;;;;;;;7.90;2.22;;;;;;;22.44;47.37;99559.09;4332388;33;33108;-93
2023/06/04 10:43:15;;;;;;;6.18;2.05;;;;;;;22.54;46.86;99560.53;4343959;33;33630;-86
2023/06/04 10:45:44;;;;;;;6.90;2.30;;;;;;;22.70;45.40;99563.59;4336046;33;33657;-88
2023/06/04 10:48:12;;;;;;;5.65;2.03;;;;;;;22.67;44.08;99561.91;4331626;33;33976;-85
2023/06/04 10:50:53;;;;;;;5.07;2.15;;;;;;;22.60;45.18;99560.34;4325885;32;33174;-91
2023/06/04 10:53:21;;;;;;;6.40;1.90;;;;;;;22.73;45.16;99567.00;4348794;32;33762;-89
2023/06/04 10:55:49;;;;;;;7.15;2.35;;;;;;;22.67;44.50;99558.41;4336325;33;35163;-90
2023/06/04 10:58:17;;;;;;;4.78;2.10;;;;;;;22.35;45.77;99562.88;4346221;32;33616;-89
2023/06/04 11:00:47;;;;;;;5.00;1.52;;;;;;;22.78;45.54;99570.38;4337892;33;33538;-83
2023/06/04 11:03:15;;;;;;;4.57;1.80;;;;;;;22.57;45.95;99561.28;4346104;33;34728;-85
2023/06/04 11:05:44;;;;;;;4.22;1.40;;;;;;;22.65;43.97;99561.06;4346122;33;33863;-86
2023/06/04 11:08:14;;;;;;;3.42;1.35;;;;;;;22.55;43.79;99560.50;4332948;33;34233;-90
2023/06/04 11:10:51;;;;;;;3.15;1.10;;;;;;;22.48;44.11;99556.28;4348295;32;33136;-90
2023/06/04 11:13:25;;;;;;;7.40;1.20;;;;;;;22.32;42.23;99560.31;4345144;33;34719;-91
2023/06/04 11:15:53;;;;;;;4.40;1.37;;;;;;;22.37;43.08;99546.97;4346090;32;34113;-85
2023/06/04 11:18:22;;;;;;;5.18;1.62;;;;;;;22.22;43.45;99557.06;4346016;32;34700;-88
2023/06/04 11:20:58;;;;;;;5.30;1.60;;;;;;;22.23;43.95;99557.91;4338835;33;33530;-87
2023/06/04 11:23:26;;;;;;;5.35;1.80;;;;;;;22.17;45.17;99556.34;4307279;33;32591;-84
2023/06/04 11:25:55;;;;;;;4.57;1.40;;;;;;;22.39;44.65;99561.88;4326052;32;34089;-84
2023/06/04 11:28:22;;;;;;;4.85;1.73;;;;;;;22.07;43.79;99557.44;4352631;32;34066;-84
2023/06/04 11:30:57;;;;;;;4.15;1.55;;;;;;;22.03;44.17;99555.81;4332189;33;33117;-84
2023/06/04 11:33:25;;;;;;;3.12;1.27;;;;;;;21.92;44.64;99549.97;4331820;33;33801;-85
2023/06/04 11:35:53;;;;;;;4.20;1.30;;;;;;;21.71;45.51;99552.28;4342097;33;34977;-84
2023/06/04 11:38:20;;;;;;;5.97;1.75;;;;;;;21.78;46.43;99553.84;4346065;33;33946;-86
2023/06/04 11:41:00;;;;;;;4.32;1.50;;;;;;;21.98;47.25;99557.72;4346193;33;33315;-87
2023/06/04 11:43:29;;;;;;;7.25;1.90;;;;;;;22.11;48.15;99556.47;4318986;33;33288;-83
2023/06/04 11:45:56;;;;;;;4.30;1.70;;;;;;;21.90;48.93;99559.72;4350386;32;34135;-84